Station Historical Data
Daily Summary for May 23, 2017 Units:  Metric    English   Both
« Previous Day
Next Day »
Daily Weekly Monthly Yearly Custom
  High: Low: Average:
Temperature: 23.9 °C 7.5 °C 16.6 °C
Dew Point: 12.1 °C 5.4 °C 8.9 °C
Humidity: 88% 40% 63%
Wind Speed: 16.1km/h 0km/h 3.9km/h
Wind Gust: 24.1km/h - -
Wind- - South
Pressure: 1015.1 hPa 1006.7 hPa -
Precipitation: 0 mm    
Historical Graphs
 
 
Tabular Data for May 23, 2017
Time Temperature Dew Point Pressure Wind Wind Speed Wind Gust Humidity Rainfall Rate (Hourly)
00:00 9.9 °C 6.3 °C 1015.1 hPa Calm     78% 0 mm
00:05 9.8 °C 6.3 °C 1015.1 hPa Calm     79% 0 mm
00:10 9.8 °C 6.3 °C 1015.1 hPa Calm     79% 0 mm
00:15 9.7 °C 6.1 °C 1015.1 hPa Calm     78% 0 mm
00:20 9.7 °C 6.1 °C 1015.1 hPa Calm     78% 0 mm
00:25 9.8 °C 6.1 °C 1015.1 hPa Calm     78% 0 mm
00:30 9.8 °C 6.1 °C 1015.1 hPa Calm     78% 0 mm
00:35 9.8 °C 6.2 °C 1014.8 hPa Calm     78% 0 mm
00:40 9.7 °C 6 °C 1014.8 hPa Calm     78% 0 mm
00:45 9.5 °C 6.1 °C 1014.8 hPa Calm     79% 0 mm
00:50 9.4 °C 5.9 °C 1014.8 hPa Calm     79% 0 mm
00:55 9.3 °C 6 °C 1014.8 hPa Calm     80% 0 mm
01:00 9.1 °C 5.8 °C 1014.8 hPa Calm     80% 0 mm
01:05 9 °C 5.9 °C 1014.8 hPa Calm     81% 0 mm
01:10 8.9 °C 5.8 °C 1014.4 hPa Calm     81% 0 mm
01:15 8.8 °C 5.7 °C 1014.4 hPa Calm     81% 0 mm
01:20 8.7 °C 5.8 °C 1014.8 hPa Calm     82% 0 mm
01:25 8.6 °C 5.7 °C 1014.4 hPa Calm     82% 0 mm
01:30 8.5 °C 5.8 °C 1014.4 hPa Calm     83% 0 mm
01:35 8.4 °C 5.7 °C 1014.4 hPa Calm     83% 0 mm
01:40 8.3 °C 5.8 °C 1014.4 hPa Calm     84% 0 mm
01:45 8.2 °C 5.7 °C 1014.4 hPa Calm     84% 0 mm
01:50 8.3 °C 5.7 °C 1014.4 hPa Calm     84% 0 mm
01:55 8.3 °C 5.7 °C 1014.4 hPa Calm     84% 0 mm
02:00 8.3 °C 5.9 °C 1014.4 hPa Calm     85% 0 mm
02:05 8.3 °C 5.7 °C 1014.4 hPa Calm     84% 0 mm
02:10 8.2 °C 5.6 °C 1014.4 hPa Calm     84% 0 mm
02:15 8.1 °C 5.7 °C 1014.4 hPa Calm     85% 0 mm
02:20 8.1 °C 5.7 °C 1014.4 hPa Calm     85% 0 mm
02:25 8.1 °C 5.7 °C 1014.4 hPa Calm     85% 0 mm
02:30 8.2 °C 5.8 °C 1014.4 hPa Calm     85% 0 mm
02:35 8 °C 5.6 °C 1014.1 hPa Calm     85% 0 mm
02:40 8.1 °C 5.8 °C 1014.4 hPa Calm     86% 0 mm
02:45 8.1 °C 5.7 °C 1014.4 hPa Calm     85% 0 mm
02:50 8.1 °C 5.7 °C 1014.1 hPa Calm     85% 0 mm
02:55 8.1 °C 5.7 °C 1014.1 hPa Calm     85% 0 mm
03:00 8.2 °C 5.8 °C 1014.1 hPa Calm     85% 0 mm
03:05 8.1 °C 5.7 °C 1014.1 hPa Calm     85% 0 mm
03:10 8.1 °C 5.7 °C 1014.1 hPa Calm     85% 0 mm
03:15 8.2 °C 5.8 °C 1014.1 hPa Calm     85% 0 mm
03:20 8.2 °C 5.8 °C 1014.1 hPa Calm     85% 0 mm
03:25 8.1 °C 5.7 °C 1014.1 hPa Calm     85% 0 mm
03:30 8 °C 5.6 °C 1014.1 hPa Calm     85% 0 mm
03:35 7.9 °C 5.6 °C 1014.1 hPa Calm     85% 0 mm
03:40 7.8 °C 5.4 °C 1014.1 hPa Calm     85% 0 mm
03:45 7.9 °C 5.7 °C 1013.8 hPa Calm     86% 0 mm
03:50 7.9 °C 5.7 °C 1013.8 hPa Calm     86% 0 mm
03:55 7.9 °C 5.7 °C 1013.8 hPa Calm     86% 0 mm
04:00 7.8 °C 5.6 °C 1013.8 hPa Calm     86% 0 mm
04:05 7.6 °C 5.6 °C 1013.8 hPa Calm     87% 0 mm
04:10 7.7 °C 5.7 °C 1013.8 hPa Calm     87% 0 mm
04:15 7.6 °C 5.6 °C 1013.8 hPa Calm     87% 0 mm
04:20 7.7 °C 5.5 °C 1013.8 hPa Calm     86% 0 mm
04:25 7.6 °C 5.6 °C 1013.8 hPa Calm     87% 0 mm
04:30 7.5 °C 5.5 °C 1013.8 hPa Calm     87% 0 mm
04:35 7.6 °C 5.6 °C 1013.8 hPa Calm     87% 0 mm
04:40 7.6 °C 5.6 °C 1013.8 hPa Calm     87% 0 mm
04:45 7.6 °C 5.6 °C 1013.8 hPa Calm     87% 0 mm
04:50 7.5 °C 5.5 °C 1013.8 hPa Calm     87% 0 mm
04:55 7.6 °C 5.7 °C 1013.8 hPa Calm     88% 0 mm
05:00 7.7 °C 5.8 °C 1013.8 hPa Calm     88% 0 mm
05:05 7.8 °C 5.7 °C 1013.4 hPa Calm     87% 0 mm
05:10 7.9 °C 5.9 °C 1013.8 hPa Calm     87% 0 mm
05:15 8.1 °C 6 °C 1013.8 hPa Calm     87% 0 mm
05:20 8 °C 5.8 °C 1013.8 hPa Calm     86% 0 mm
05:25 8 °C 5.8 °C 1013.8 hPa Calm     86% 0 mm
05:30 8.1 °C 5.8 °C 1013.8 hPa Calm     86% 0 mm
05:35 8.2 °C 5.9 °C 1013.8 hPa Calm     86% 0 mm
05:40 8.3 °C 6.1 °C 1013.8 hPa Calm     86% 0 mm
05:45 8.4 °C 6 °C 1013.8 hPa Calm     85% 0 mm
05:50 8.4 °C 6.1 °C 1013.8 hPa Calm     85% 0 mm
05:55 8.4 °C 6.1 °C 1013.8 hPa Calm     85% 0 mm
06:00 8.5 °C 6.1 °C 1013.8 hPa Calm     85% 0 mm
06:05 8.7 °C 6.3 °C 1013.8 hPa Calm     85% 0 mm
06:10 8.7 °C 6.3 °C 1013.4 hPa Calm     85% 0 mm
06:15 8.8 °C 6.4 °C 1013.4 hPa Calm     85% 0 mm
06:20 8.9 °C 6.6 °C 1013.4 hPa Calm   3.2 km/h 85% 0 mm
06:25 9.4 °C 7.1 °C 1013.1 hPa Calm   6.4 km/h 85% 0 mm
06:30 9.8 °C 7 °C 1013.1 hPa Calm   3.2 km/h 83% 0 mm
06:35 9.9 °C 7 °C 1013.4 hPa Calm   3.2 km/h 82% 0 mm
06:40 10.1 °C 7.1 °C 1013.4 hPa Calm   1.6 km/h 82% 0 mm
06:45 10.2 °C 7.2 °C 1013.4 hPa Calm   3.2 km/h 82% 0 mm
06:50 10.3 °C 7.4 °C 1013.4 hPa Calm   3.2 km/h 82% 0 mm
06:55 10.6 °C 7.5 °C 1013.4 hPa South 1.6 km/h 3.2 km/h 81% 0 mm
07:00 10.9 °C 7.6 °C 1013.4 hPa South 3.2 km/h 4.8 km/h 80% 0 mm
07:05 11.2 °C 7.7 °C 1013.4 hPa South 1.6 km/h 6.4 km/h 79% 0 mm
07:10 11.4 °C 7.9 °C 1013.1 hPa Calm   3.2 km/h 79% 0 mm
07:15 11.6 °C 7.9 °C 1013.1 hPa SSW 1.6 km/h 4.8 km/h 78% 0 mm
07:20 11.9 °C 8.2 °C 1013.1 hPa Calm   1.6 km/h 78% 0 mm
07:25 12.1 °C 8.2 °C 1013.4 hPa SSW 3.2 km/h 3.2 km/h 77% 0 mm
07:30 12.2 °C 8.3 °C 1013.4 hPa Calm   4.8 km/h 77% 0 mm
07:35 12.3 °C 8.4 °C 1013.4 hPa SSW 1.6 km/h 4.8 km/h 77% 0 mm
07:40 12.4 °C 8.3 °C 1013.4 hPa SSW 1.6 km/h 4.8 km/h 76% 0 mm
07:45 12.6 °C 8.4 °C 1013.4 hPa Calm   4.8 km/h 76% 0 mm
07:50 12.8 °C 8.7 °C 1013.4 hPa Calm   4.8 km/h 76% 0 mm
07:55 13.3 °C 8.9 °C 1013.4 hPa Calm   4.8 km/h 75% 0 mm
08:00 13.7 °C 9.2 °C 1013.4 hPa SSW 1.6 km/h 1.6 km/h 74% 0 mm
08:05 13.9 °C 9.4 °C 1013.4 hPa SW 1.6 km/h 4.8 km/h 74% 0 mm
08:10 14.4 °C 9.8 °C 1013.4 hPa SW 1.6 km/h 4.8 km/h 74% 0 mm
08:15 14.8 °C 9.8 °C 1013.4 hPa SW 4.8 km/h 6.4 km/h 72% 0 mm
08:20 15.2 °C 9.5 °C 1013.1 hPa Calm   8 km/h 69% 0 mm
08:25 15.4 °C 9.6 °C 1013.1 hPa SW 3.2 km/h 11.3 km/h 68% 0 mm
08:30 15.7 °C 9.8 °C 1013.1 hPa SW 3.2 km/h 8 km/h 68% 0 mm
08:35 15.9 °C 10 °C 1013.1 hPa WSW 3.2 km/h 8 km/h 68% 0 mm
08:40 16.1 °C 10 °C 1013.1 hPa WSW 1.6 km/h 6.4 km/h 67% 0 mm
08:45 16.4 °C 9.8 °C 1013.1 hPa WSW 1.6 km/h 9.7 km/h 65% 0 mm
08:50 16.7 °C 9.8 °C 1013.4 hPa SW 4.8 km/h 11.3 km/h 64% 0 mm
08:55 16.7 °C 9.9 °C 1013.1 hPa West 3.2 km/h 11.3 km/h 64% 0 mm
09:00 16.8 °C 9.7 °C 1013.1 hPa WSW 3.2 km/h 12.9 km/h 63% 0 mm
09:05 17.3 °C 10.6 °C 1013.1 hPa WSW 6.4 km/h 12.9 km/h 65% 0 mm
09:10 17.4 °C 10.1 °C 1013.1 hPa SW 4.8 km/h 12.9 km/h 62% 0 mm
09:15 17.5 °C 10.1 °C 1013.1 hPa SW 4.8 km/h 16.1 km/h 62% 0 mm
09:20 17.4 °C 10.1 °C 1013.1 hPa WSW 6.4 km/h 16.1 km/h 62% 0 mm
09:25 17.7 °C 10.1 °C 1013.1 hPa SW 9.7 km/h 16.1 km/h 61% 0 mm
09:30 17.7 °C 10.1 °C 1013.1 hPa SW 8 km/h 16.1 km/h 61% 0 mm
09:35 17.9 °C 9.8 °C 1013.1 hPa SW 3.2 km/h 16.1 km/h 59% 0 mm
09:40 17.9 °C 9.5 °C 1013.1 hPa SW 4.8 km/h 17.7 km/h 58% 0 mm
09:45 17.9 °C 9.8 °C 1013.1 hPa WSW 9.7 km/h 16.1 km/h 59% 0 mm
09:50 18.2 °C 10.6 °C 1013.1 hPa WSW 8 km/h 12.9 km/h 61% 0 mm
09:55 17.8 °C 9.7 °C 1013.1 hPa WSW 8 km/h 19.3 km/h 59% 0 mm
10:00 17.8 °C 9.9 °C 1013.1 hPa SW 8 km/h 19.3 km/h 60% 0 mm
10:05 17.9 °C 10 °C 1013.1 hPa SW 8 km/h 16.1 km/h 60% 0 mm
10:10 18.1 °C 10.4 °C 1013.1 hPa SW 8 km/h 16.1 km/h 61% 0 mm
10:15 18.1 °C 9.7 °C 1013.1 hPa SW 6.4 km/h 17.7 km/h 58% 0 mm
10:20 17.8 °C 9.7 °C 1013.1 hPa WSW 8 km/h 17.7 km/h 59% 0 mm
10:25 17.7 °C 9.6 °C 1013.1 hPa WSW 3.2 km/h 16.1 km/h 59% 0 mm
10:30 17.8 °C 9.7 °C 1013.1 hPa West 8 km/h 16.1 km/h 59% 0 mm
10:35 18.1 °C 9.9 °C 1013.1 hPa SW 8 km/h 17.7 km/h 59% 0 mm
10:40 17.9 °C 9.6 °C 1013.1 hPa WSW 11.3 km/h 19.3 km/h 58% 0 mm
10:45 18.1 °C 9.9 °C 1013.1 hPa WSW 9.7 km/h 17.7 km/h 59% 0 mm
10:50 18.1 °C 9.9 °C 1013.4 hPa West 11.3 km/h 14.5 km/h 59% 0 mm
10:55 18 °C 9.6 °C 1013.1 hPa WSW 11.3 km/h 17.7 km/h 58% 0 mm
11:00 18.2 °C 9.5 °C 1013.4 hPa WSW 8 km/h 17.7 km/h 57% 0 mm
11:05 17.9 °C 9.3 °C 1013.1 hPa WSW 8 km/h 22.5 km/h 57% 0 mm
11:10 17.9 °C 9.3 °C 1013.1 hPa West 11.3 km/h 19.3 km/h 57% 0 mm
11:15 18.1 °C 9.7 °C 1012.8 hPa WSW 16.1 km/h 22.5 km/h 58% 0 mm
11:20 18.5 °C 9.8 °C 1012.8 hPa SW 14.5 km/h 19.3 km/h 57% 0 mm
11:25 18.8 °C 10.1 °C 1012.8 hPa West 6.4 km/h 19.3 km/h 57% 0 mm
11:30 18.9 °C 9.7 °C 1012.8 hPa WSW 9.7 km/h 19.3 km/h 55% 0 mm
11:35 19.2 °C 10.2 °C 1012.8 hPa WSW 9.7 km/h 19.3 km/h 56% 0 mm
11:40 19.3 °C 9.8 °C 1012.8 hPa WSW 9.7 km/h 19.3 km/h 54% 0 mm
11:45 19.4 °C 10.7 °C 1012.8 hPa WSW 11.3 km/h 24.1 km/h 57% 0 mm
11:50 19.7 °C 10.4 °C 1012.4 hPa WSW 9.7 km/h 24.1 km/h 55% 0 mm
11:55 19.8 °C 10.5 °C 1012.4 hPa West 6.4 km/h 16.1 km/h 55% 0 mm
12:00 19.6 °C 9.7 °C 1012.4 hPa West 4.8 km/h 16.1 km/h 53% 0 mm
12:05 19.7 °C 10.4 °C 1012.4 hPa WSW 9.7 km/h 16.1 km/h 55% 0 mm
12:10 20.1 °C 10.2 °C 1012.4 hPa West 4.8 km/h 16.1 km/h 53% 0 mm
12:15 20.3 °C 11.2 °C 1012.4 hPa WNW 6.4 km/h 14.5 km/h 56% 0 mm
12:20 20.2 °C 10.3 °C 1012.4 hPa SW 1.6 km/h 16.1 km/h 53% 0 mm
12:25 20.1 °C 9.9 °C 1012.1 hPa WSW 9.7 km/h 16.1 km/h 52% 0 mm
12:30 20.3 °C 11.2 °C 1012.1 hPa WSW 8 km/h 16.1 km/h 56% 0 mm
12:35 20.4 °C 10.5 °C 1012.1 hPa WSW 8 km/h 17.7 km/h 53% 0 mm
12:40 20.4 °C 10.6 °C 1012.1 hPa SW 9.7 km/h 19.3 km/h 53% 0 mm
12:45 20.8 °C 10.6 °C 1011.7 hPa West 4.8 km/h 12.9 km/h 52% 0 mm
12:55 21.1 °C 10 °C 1011.7 hPa West 8 km/h 20.9 km/h 49% 0 mm
13:00 20.9 °C 11 °C 1011.7 hPa WSW 9.7 km/h 17.7 km/h 53% 0 mm
13:05 20.8 °C 11.4 °C 1011.7 hPa West 9.7 km/h 17.7 km/h 55% 0 mm
13:10 21.2 °C 10.6 °C 1011.4 hPa SSW 4.8 km/h 11.3 km/h 51% 0 mm
13:15 21 °C 10.2 °C 1011.4 hPa WSW 9.7 km/h 14.5 km/h 50% 0 mm
13:20 21 °C 10.5 °C 1011.4 hPa WSW 6.4 km/h 12.9 km/h 51% 0 mm
13:25 21.4 °C 12 °C 1011.4 hPa West 8 km/h 14.5 km/h 55% 0 mm
13:30 21.7 °C 10.8 °C 1011.4 hPa West 6.4 km/h 17.7 km/h 50% 0 mm
13:35 21.8 °C 12.1 °C 1011.4 hPa West 6.4 km/h 17.7 km/h 54% 0 mm
13:40 21.6 °C 11.9 °C 1011.1 hPa West 8 km/h 12.9 km/h 54% 0 mm
13:45 21.7 °C 10.8 °C 1011.1 hPa SW 4.8 km/h 14.5 km/h 50% 0 mm
13:50 21.8 °C 11.6 °C 1011.1 hPa WSW 9.7 km/h 12.9 km/h 52% 0 mm
13:55 21.6 °C 11.9 °C 1011.1 hPa WSW 6.4 km/h 12.9 km/h 54% 0 mm
14:00 21.9 °C 11.9 °C 1011.1 hPa WSW 6.4 km/h 16.1 km/h 53% 0 mm
14:05 22.1 °C 11.2 °C 1011.1 hPa West 3.2 km/h 14.5 km/h 50% 0 mm
14:10 22.3 °C 10.4 °C 1010.7 hPa SSW 6.4 km/h 12.9 km/h 47% 0 mm
14:15 21.7 °C 9.9 °C 1010.7 hPa SSW 6.4 km/h 12.9 km/h 47% 0 mm
14:20 21.9 °C 10.4 °C 1010.7 hPa SW 14.5 km/h 14.5 km/h 48% 0 mm
14:25 22.2 °C 11.6 °C 1010.7 hPa SW 6.4 km/h 14.5 km/h 51% 0 mm
14:30 22.2 °C 10.3 °C 1010.7 hPa SW 6.4 km/h 16.1 km/h 47% 0 mm
14:35 22.1 °C 10.6 °C 1010.4 hPa WSW 8 km/h 14.5 km/h 48% 0 mm
14:40 22.4 °C 9.9 °C 1010.4 hPa WNW 8 km/h 11.3 km/h 45% 0 mm
14:45 22.4 °C 9.6 °C 1010 hPa West 6.4 km/h 11.3 km/h 44% 0 mm
14:50 22.7 °C 11.1 °C 1010 hPa West 6.4 km/h 11.3 km/h 48% 0 mm
14:55 22.2 °C 9.1 °C 1010 hPa WSW 4.8 km/h 12.9 km/h 43% 0 mm
15:00 22.4 °C 9.6 °C 1010 hPa SW 6.4 km/h 12.9 km/h 44% 0 mm
15:05 22.9 °C 9.3 °C 1010 hPa WSW 6.4 km/h 12.9 km/h 42% 0 mm
15:10 22.8 °C 8.9 °C 1010 hPa SW 8 km/h 11.3 km/h 41% 0 mm
15:15 22.9 °C 9.3 °C 1009.7 hPa WSW 3.2 km/h 12.9 km/h 42% 0 mm
15:20 22.8 °C 8.8 °C 1009.7 hPa WSW 6.4 km/h 17.7 km/h 41% 0 mm
15:25 22.4 °C 9.6 °C 1009.7 hPa West 6.4 km/h 9.7 km/h 44% 0 mm
15:30 22.9 °C 9.3 °C 1009.4 hPa South 1.6 km/h 11.3 km/h 42% 0 mm
15:35 23.3 °C 9.7 °C 1009.7 hPa WSW 4.8 km/h 8 km/h 42% 0 mm
15:40 23.8 °C 11.1 °C 1009.4 hPa NW 6.4 km/h 12.9 km/h 45% 0 mm
15:45 23.7 °C 10.1 °C 1009.4 hPa West 1.6 km/h 11.3 km/h 42% 0 mm
15:50 23.5 °C 9.8 °C 1009.4 hPa WNW 4.8 km/h 12.9 km/h 42% 0 mm
15:55 23.7 °C 9.6 °C 1009.4 hPa WNW 4.8 km/h 12.9 km/h 41% 0 mm
16:00 23.7 °C 12.1 °C 1009.4 hPa West 3.2 km/h 9.7 km/h 48% 0 mm
16:05 23.6 °C 9.6 °C 1009.4 hPa West 3.2 km/h 9.7 km/h 41% 0 mm
16:10 23.6 °C 10.7 °C 1009 hPa WNW 3.2 km/h 9.7 km/h 44% 0 mm
16:15 23.9 °C 11.6 °C 1009 hPa West 6.4 km/h 11.3 km/h 46% 0 mm
16:20 23.9 °C 10.2 °C 1008.7 hPa WNW 6.4 km/h 11.3 km/h 42% 0 mm
16:25 23.6 °C 11.9 °C 1008.7 hPa NW 4.8 km/h 9.7 km/h 48% 0 mm
16:30 23.4 °C 9.4 °C 1008.7 hPa WSW 1.6 km/h 11.3 km/h 41% 0 mm
16:35 23.3 °C 9.3 °C 1008.7 hPa SW 6.4 km/h 8 km/h 41% 0 mm
16:40 23.2 °C 9.6 °C 1008.7 hPa SSE 3.2 km/h 9.7 km/h 42% 0 mm
16:45 23.3 °C 10.4 °C 1008.4 hPa NE 6.4 km/h 11.3 km/h 44% 0 mm
16:50 23.5 °C 11.6 °C 1008.4 hPa East 4.8 km/h 11.3 km/h 47% 0 mm
16:55 23.8 °C 9.4 °C 1008.4 hPa SE 3.2 km/h 8 km/h 40% 0 mm
17:00 23.8 °C 10.5 °C 1008 hPa West 1.6 km/h 6.4 km/h 43% 0 mm
17:05 23.7 °C 10.1 °C 1008 hPa WNW 6.4 km/h 8 km/h 42% 0 mm
17:10 23.4 °C 9.4 °C 1008 hPa North 3.2 km/h 8 km/h 41% 0 mm
17:15 23.8 °C 11.4 °C 1008 hPa NW 3.2 km/h 8 km/h 46% 0 mm
17:20 23.4 °C 9.1 °C 1008 hPa West 3.2 km/h 8 km/h 40% 0 mm
17:25 23.9 °C 10.9 °C 1007.7 hPa WSW 3.2 km/h 6.4 km/h 44% 0 mm
17:30 23.9 °C 10.9 °C 1007.7 hPa West 3.2 km/h 8 km/h 44% 0 mm
17:35 23.9 °C 10.2 °C 1007.7 hPa NE 1.6 km/h 6.4 km/h 42% 0 mm
17:40 23.7 °C 10.4 °C 1007.7 hPa East 1.6 km/h 12.9 km/h 43% 0 mm
17:45 23.8 °C 9.7 °C 1007.7 hPa ENE 4.8 km/h 12.9 km/h 41% 0 mm
17:50 23.6 °C 9.6 °C 1007.7 hPa ESE 3.2 km/h 8 km/h 41% 0 mm
17:55 23.7 °C 10.1 °C 1007.7 hPa SSW 4.8 km/h 9.7 km/h 42% 0 mm
18:00 23.6 °C 10.2 °C 1007.7 hPa WNW 4.8 km/h 4.8 km/h 43% 0 mm
18:05 23.6 °C 9.9 °C 1007.7 hPa NW 4.8 km/h 6.4 km/h 42% 0 mm
18:10 23.6 °C 10.2 °C 1007.7 hPa East 3.2 km/h 11.3 km/h 43% 0 mm
18:15 23.5 °C 10.2 °C 1007.7 hPa NE 4.8 km/h 11.3 km/h 43% 0 mm
18:20 23.2 °C 10.9 °C 1007.7 hPa NE 3.2 km/h 11.3 km/h 46% 0 mm
18:25 23.2 °C 10.2 °C 1007.3 hPa North 3.2 km/h 6.4 km/h 44% 0 mm
18:30 23.3 °C 10.7 °C 1007.3 hPa NNE 1.6 km/h 6.4 km/h 45% 0 mm
18:35 23.3 °C 10.4 °C 1007.3 hPa ENE 6.4 km/h 11.3 km/h 44% 0 mm
18:40 23.2 °C 10.6 °C 1007.3 hPa ENE 6.4 km/h 8 km/h 45% 0 mm
18:45 23.3 °C 10.3 °C 1007.3 hPa ENE 3.2 km/h 8 km/h 44% 0 mm
18:50 23.2 °C 10.6 °C 1007.3 hPa NE 11.3 km/h 12.9 km/h 45% 0 mm
18:55 23.1 °C 10.5 °C 1007.3 hPa Calm   11.3 km/h 45% 0 mm
19:00 22.9 °C 10.7 °C 1007.3 hPa Calm   3.2 km/h 46% 0 mm
19:05 22.9 °C 10.3 °C 1007.3 hPa NE 3.2 km/h 11.3 km/h 45% 0 mm
19:10 22.7 °C 10.2 °C 1007.3 hPa NE 3.2 km/h 11.3 km/h 45% 0 mm
19:15 22.4 °C 10.2 °C 1007.3 hPa North 1.6 km/h 4.8 km/h 46% 0 mm
19:20 22.5 °C 10.3 °C 1007.3 hPa North 1.6 km/h 4.8 km/h 46% 0 mm
19:25 22.6 °C 10.4 °C 1007.3 hPa NNE 3.2 km/h 8 km/h 46% 0 mm
19:30 22.3 °C 9.8 °C 1007 hPa NE 4.8 km/h 8 km/h 45% 0 mm
19:35 22.3 °C 10.4 °C 1007 hPa NE 6.4 km/h 9.7 km/h 47% 0 mm
19:40 22.3 °C 9.8 °C 1007.3 hPa NE 3.2 km/h 9.7 km/h 45% 0 mm
19:45 22.3 °C 9.8 °C 1007.3 hPa NE 4.8 km/h 14.5 km/h 45% 0 mm
19:50 22.3 °C 10.1 °C 1007.3 hPa ENE 4.8 km/h 12.9 km/h 46% 0 mm
19:55 22.2 °C 10 °C 1007.3 hPa NE 3.2 km/h 16.1 km/h 46% 0 mm
20:00 22 °C 9.8 °C 1007 hPa NE 1.6 km/h 14.5 km/h 46% 0 mm
20:05 21.6 °C 10.1 °C 1007 hPa NE 3.2 km/h 4.8 km/h 48% 0 mm
20:10 21.4 °C 10 °C 1007 hPa NE 1.6 km/h 4.8 km/h 48% 0 mm
20:15 21.3 °C 10.2 °C 1007 hPa NE 3.2 km/h 6.4 km/h 49% 0 mm
20:20 21.3 °C 9.8 °C 1007 hPa NE 3.2 km/h 6.4 km/h 48% 0 mm
20:25 21.2 °C 9.7 °C 1007 hPa NE 3.2 km/h 9.7 km/h 48% 0 mm
20:30 21.1 °C 9.7 °C 1007 hPa NE 4.8 km/h 9.7 km/h 48% 0 mm
20:35 20.9 °C 9.8 °C 1007 hPa NE 3.2 km/h 9.7 km/h 49% 0 mm
20:40 20.8 °C 9.9 °C 1007 hPa NE 6.4 km/h 9.7 km/h 50% 0 mm
20:45 20.7 °C 9.9 °C 1007.3 hPa NE 4.8 km/h 12.9 km/h 50% 0 mm
20:50 20.6 °C 10.3 °C 1007.3 hPa ENE 3.2 km/h 8 km/h 52% 0 mm
20:55 20.4 °C 10.8 °C 1007.3 hPa ENE 16.1 km/h 19.3 km/h 54% 0 mm
21:00 20.3 °C 10.9 °C 1007.3 hPa NE 6.4 km/h 16.1 km/h 55% 0 mm
21:05 20.1 °C 11.3 °C 1007.3 hPa NE 6.4 km/h 16.1 km/h 57% 0 mm
21:10 19.8 °C 11.3 °C 1007.3 hPa NE 6.4 km/h 16.1 km/h 58% 0 mm
21:15 19.6 °C 11.3 °C 1007.3 hPa NE 4.8 km/h 14.5 km/h 59% 0 mm
21:20 19.5 °C 11.5 °C 1007.3 hPa NE 4.8 km/h 17.7 km/h 60% 0 mm
21:25 19.3 °C 11.6 °C 1007.7 hPa NE 6.4 km/h 17.7 km/h 61% 0 mm
21:30 19.1 °C 11.7 °C 1007.3 hPa NE 3.2 km/h 9.7 km/h 62% 0 mm
21:35 18.9 °C 11.5 °C 1007.7 hPa NNE 4.8 km/h 12.9 km/h 62% 0 mm
21:40 18.8 °C 11.4 °C 1007.3 hPa NE 4.8 km/h 12.9 km/h 62% 0 mm
21:45 18.8 °C 11.3 °C 1007.7 hPa ENE 11.3 km/h 17.7 km/h 62% 0 mm
21:50 18.7 °C 11.3 °C 1007.7 hPa NE 4.8 km/h 17.7 km/h 62% 0 mm
21:55 18.6 °C 11.4 °C 1007.7 hPa ENE 8 km/h 14.5 km/h 63% 0 mm
22:00 18.5 °C 11.3 °C 1007.7 hPa NE 8 km/h 16.1 km/h 63% 0 mm
22:05 18.4 °C 11.2 °C 1007.7 hPa NE 8 km/h 14.5 km/h 63% 0 mm
22:10 18.3 °C 11.3 °C 1007.7 hPa NE 6.4 km/h 14.5 km/h 64% 0 mm
22:15 18.1 °C 11.2 °C 1007.7 hPa NE 6.4 km/h 12.9 km/h 64% 0 mm
22:20 18.1 °C 11.4 °C 1007.7 hPa ENE 6.4 km/h 11.3 km/h 65% 0 mm
22:25 18 °C 11.3 °C 1007.3 hPa NE 6.4 km/h 14.5 km/h 65% 0 mm
22:30 17.9 °C 11.3 °C 1007.3 hPa East 4.8 km/h 14.5 km/h 65% 0 mm
22:35 17.8 °C 11.2 °C 1007.3 hPa ENE 3.2 km/h 11.3 km/h 65% 0 mm
22:40 17.8 °C 11.2 °C 1007.3 hPa NE 4.8 km/h 12.9 km/h 65% 0 mm
22:45 17.7 °C 11.1 °C 1007.3 hPa NE 3.2 km/h 8 km/h 65% 0 mm
22:50 17.8 °C 11.1 °C 1007.3 hPa ENE 4.8 km/h 11.3 km/h 65% 0 mm
22:55 17.7 °C 11.1 °C 1007.3 hPa ENE 3.2 km/h 12.9 km/h 65% 0 mm
23:00 17.7 °C 10.8 °C 1007.3 hPa NE 4.8 km/h 14.5 km/h 64% 0 mm
23:05 17.6 °C 10.7 °C 1007 hPa ENE 4.8 km/h 16.1 km/h 64% 0 mm
23:10 17.6 °C 10.7 °C 1007 hPa ENE 4.8 km/h 16.1 km/h 64% 0 mm
23:15 17.5 °C 10.6 °C 1007 hPa ENE 6.4 km/h 14.5 km/h 64% 0 mm
23:20 17.4 °C 10.6 °C 1007 hPa ENE 6.4 km/h 12.9 km/h 64% 0 mm
23:25 17.4 °C 10.5 °C 1006.7 hPa ENE 6.4 km/h 12.9 km/h 64% 0 mm
23:30 17.3 °C 10.4 °C 1007 hPa ENE 4.8 km/h 12.9 km/h 64% 0 mm
23:35 17.2 °C 10.3 °C 1006.7 hPa East 4.8 km/h 12.9 km/h 64% 0 mm
23:40 17.2 °C 10.6 °C 1006.7 hPa ENE 1.6 km/h 9.7 km/h 65% 0 mm
23:45 17.1 °C 10.4 °C 1007 hPa East 1.6 km/h 9.7 km/h 65% 0 mm
23:50 17.1 °C 10.4 °C 1006.7 hPa East 8 km/h 12.9 km/h 65% 0 mm
23:55 16.9 °C 10.3 °C 1006.7 hPa East 4.8 km/h 12.9 km/h 65% 0 mm
Buffalo, New York, USA
Compliments of Weather Underground - 2.5 mb